createdAt,value
2018-05-13T00:00:04.539Z,15.50
2018-05-13T00:02:33.022Z,15.40
2018-05-13T00:05:01.497Z,15.50
2018-05-13T00:07:29.956Z,15.50
2018-05-13T00:09:58.428Z,15.60
2018-05-13T00:12:26.919Z,15.60
2018-05-13T00:14:55.389Z,15.40
2018-05-13T00:17:24.079Z,15.30
2018-05-13T00:19:52.555Z,15.20
2018-05-13T00:22:21.002Z,15.10
2018-05-13T00:24:49.515Z,15.20
2018-05-13T00:27:18.008Z,15.10
2018-05-13T00:29:46.634Z,15.20
2018-05-13T00:32:15.086Z,15.30
2018-05-13T00:34:43.536Z,15.30
2018-05-13T00:37:12.043Z,15.30
2018-05-13T00:39:40.537Z,15.30
2018-05-13T00:42:09.097Z,15.20
2018-05-13T00:44:38.352Z,15.10
2018-05-13T00:47:06.863Z,15.10
2018-05-13T00:49:35.375Z,15.20
2018-05-13T00:52:03.838Z,15.30
2018-05-13T00:54:49.856Z,15.20
2018-05-13T00:57:18.285Z,15.40
2018-05-13T00:59:46.752Z,15.40
2018-05-13T01:02:15.292Z,15.40
2018-05-13T01:04:43.738Z,15.20
2018-05-13T01:07:12.250Z,15.10
2018-05-13T01:09:40.725Z,15.10
2018-05-13T01:12:09.223Z,15.10
2018-05-13T01:14:37.795Z,15.00
2018-05-13T01:17:06.291Z,15.10
2018-05-13T01:19:34.751Z,15.20
2018-05-13T01:22:03.374Z,15.50
2018-05-13T01:24:31.797Z,15.50
2018-05-13T01:27:00.256Z,15.50
2018-05-13T01:29:29.577Z,15.40
2018-05-13T01:31:58.137Z,15.40
2018-05-13T01:34:26.639Z,15.30
2018-05-13T01:36:55.099Z,15.10
2018-05-13T01:39:23.588Z,15.10
2018-05-13T01:41:52.825Z,15.20
2018-05-13T01:44:22.156Z,15.20
2018-05-13T01:46:50.629Z,15.20
2018-05-13T01:49:19.100Z,15.20
2018-05-13T01:51:47.564Z,15.20
2018-05-13T01:54:17.708Z,15.10
2018-05-13T01:56:46.183Z,15.10
2018-05-13T01:59:14.627Z,15.00
2018-05-13T02:01:43.877Z,15.80
2018-05-13T02:04:12.421Z,15.70
2018-05-13T02:06:40.942Z,15.50
2018-05-13T02:09:24.286Z,15.40
2018-05-13T02:11:52.734Z,15.80
2018-05-13T02:14:21.228Z,15.60
2018-05-13T02:16:49.724Z,15.60
2018-05-13T02:19:19.022Z,15.70
2018-05-13T02:21:47.501Z,15.80
2018-05-13T02:24:15.998Z,16.10
2018-05-13T02:26:44.556Z,15.50
2018-05-13T02:29:12.997Z,15.60
2018-05-13T02:31:41.514Z,15.30
2018-05-13T02:34:09.989Z,15.10
2018-05-13T02:36:38.474Z,15.00
2018-05-13T02:39:07.050Z,15.00
2018-05-13T02:41:35.500Z,15.20
2018-05-13T02:44:03.967Z,15.20
2018-05-13T02:46:32.466Z,15.50
2018-05-13T02:49:00.972Z,16.10
2018-05-13T02:51:29.521Z,16.60
2018-05-13T02:53:57.995Z,16.40
2018-05-13T02:56:26.446Z,16.10
2018-05-13T02:58:54.933Z,15.80
2018-05-13T03:01:23.442Z,15.50
2018-05-13T03:03:51.947Z,16.00
2018-05-13T03:06:20.418Z,16.10
2018-05-13T03:08:49.004Z,15.80
2018-05-13T03:11:17.502Z,15.30
2018-05-13T03:13:46.013Z,15.50
2018-05-13T03:16:14.557Z,15.50
2018-05-13T03:18:43.013Z,16.00
2018-05-13T03:21:11.464Z,15.90
2018-05-13T03:23:40.023Z,15.50
2018-05-13T03:26:09.274Z,15.80
2018-05-13T03:28:37.740Z,15.80
2018-05-13T03:31:06.182Z,15.60
2018-05-13T03:33:34.625Z,15.40
2018-05-13T03:36:03.089Z,15.50
2018-05-13T03:38:31.537Z,15.30
2018-05-13T03:41:00.151Z,15.50
2018-05-13T03:43:28.697Z,15.50
2018-05-13T03:45:57.414Z,15.80
2018-05-13T03:48:25.877Z,15.30
2018-05-13T03:50:54.317Z,15.00
2018-05-13T03:53:23.665Z,15.80
2018-05-13T03:55:52.140Z,15.70
2018-05-13T03:58:20.635Z,15.30
2018-05-13T04:00:49.187Z,15.70
2018-05-13T04:03:17.706Z,15.30
2018-05-13T04:05:46.282Z,15.00
2018-05-13T04:08:50.217Z,15.10
2018-05-13T04:11:36.249Z,15.50
2018-05-13T04:14:23.148Z,16.10
2018-05-13T04:16:51.624Z,16.30
2018-05-13T04:19:20.124Z,15.60
2018-05-13T04:21:48.609Z,15.40
2018-05-13T04:24:17.100Z,15.10
2018-05-13T04:26:45.575Z,15.10
2018-05-13T04:29:14.115Z,15.50
2018-05-13T04:31:42.626Z,15.50
2018-05-13T04:34:11.100Z,15.60
2018-05-13T04:36:39.586Z,15.90
2018-05-13T04:39:08.038Z,16.10
2018-05-13T04:41:36.509Z,16.00
2018-05-13T04:44:04.999Z,16.10
2018-05-13T04:46:33.455Z,15.90
2018-05-13T04:49:02.773Z,15.50
2018-05-13T04:51:31.217Z,15.50
2018-05-13T04:53:59.704Z,15.40
2018-05-13T04:56:28.255Z,15.50
2018-05-13T04:58:57.068Z,15.60
2018-05-13T05:01:25.551Z,16.00
2018-05-13T05:03:54.173Z,16.20
2018-05-13T05:06:22.755Z,15.90
2018-05-13T05:08:51.248Z,15.70
2018-05-13T05:11:20.429Z,15.70
2018-05-13T05:13:48.907Z,15.70
2018-05-13T05:16:17.393Z,15.70
2018-05-13T05:18:45.975Z,15.50
2018-05-13T05:21:14.526Z,15.50
2018-05-13T05:23:42.985Z,15.50
2018-05-13T05:26:11.551Z,15.50
2018-05-13T05:28:39.994Z,15.40
2018-05-13T05:31:08.612Z,15.40
2018-05-13T05:33:37.124Z,15.40
2018-05-13T05:36:05.590Z,15.40
2018-05-13T05:38:34.195Z,15.40
2018-05-13T05:41:02.721Z,15.50
2018-05-13T05:43:31.266Z,15.60
2018-05-13T05:45:59.893Z,15.50
2018-05-13T05:48:28.456Z,15.50
2018-05-13T05:50:56.903Z,15.60
2018-05-13T05:53:25.336Z,15.60
2018-05-13T05:55:53.807Z,15.70
2018-05-13T05:58:22.592Z,15.70
2018-05-13T06:00:54.033Z,15.80
2018-05-13T06:03:22.779Z,15.70
2018-05-13T06:05:51.214Z,15.80
2018-05-13T06:08:20.562Z,16.00
2018-05-13T06:10:54.320Z,16.40
2018-05-13T06:13:22.786Z,16.30
2018-05-13T06:15:51.258Z,16.50
2018-05-13T06:18:20.104Z,16.50
2018-05-13T06:20:48.995Z,16.50
2018-05-13T06:23:17.950Z,16.60
2018-05-13T06:25:47.202Z,16.90
2018-05-13T06:28:15.718Z,17.00
2018-05-13T06:30:44.206Z,16.90
2018-05-13T06:33:12.700Z,16.90
2018-05-13T06:35:41.178Z,16.80
2018-05-13T06:38:09.626Z,16.90
2018-05-13T06:40:38.123Z,17.20
2018-05-13T06:43:06.552Z,17.40
2018-05-13T06:45:35.015Z,17.30
2018-05-13T06:48:03.524Z,17.40
2018-05-13T06:50:32.035Z,17.50
2018-05-13T06:53:00.469Z,17.60
2018-05-13T06:55:28.949Z,17.80
2018-05-13T06:57:57.416Z,18.00
2018-05-13T07:00:26.862Z,18.00
2018-05-13T07:02:55.560Z,18.00
2018-05-13T07:05:25.023Z,18.10
2018-05-13T07:07:53.499Z,18.10
2018-05-13T07:10:21.966Z,18.10
2018-05-13T07:12:50.455Z,18.00
2018-05-13T07:15:18.923Z,18.20
2018-05-13T07:17:47.486Z,18.40
2018-05-13T07:20:15.919Z,18.30
2018-05-13T07:22:44.367Z,18.20
2018-05-13T07:25:12.832Z,18.20
2018-05-13T07:27:41.256Z,18.20
2018-05-13T07:30:09.831Z,18.30
2018-05-13T07:32:39.126Z,18.40
2018-05-13T07:35:07.602Z,18.40
2018-05-13T07:37:36.057Z,18.40
2018-05-13T07:40:04.525Z,18.60
2018-05-13T07:42:34.030Z,18.60
2018-05-13T07:45:02.527Z,18.60
2018-05-13T07:47:31.260Z,18.60
2018-05-13T07:49:59.769Z,18.60
2018-05-13T07:52:28.759Z,18.60
2018-05-13T07:54:57.237Z,18.40
2018-05-13T07:57:25.680Z,18.40
2018-05-13T07:59:54.170Z,18.50
2018-05-13T08:02:23.415Z,18.70
2018-05-13T08:04:52.668Z,18.90
2018-05-13T08:07:21.152Z,18.90
2018-05-13T08:09:50.607Z,18.90
2018-05-13T08:12:19.098Z,19.00
2018-05-13T08:14:47.682Z,18.70
2018-05-13T08:17:16.833Z,18.80
2018-05-13T08:19:45.651Z,18.90
2018-05-13T08:22:14.339Z,19.10
2018-05-13T08:24:42.888Z,19.20
2018-05-13T08:27:11.360Z,19.20
2018-05-13T08:29:39.876Z,19.40
2018-05-13T08:32:08.487Z,19.50
2018-05-13T08:34:36.980Z,19.60
2018-05-13T08:37:05.585Z,19.70
2018-05-13T08:39:34.123Z,19.90
2018-05-13T08:42:02.768Z,20.00
2018-05-13T08:44:31.249Z,20.10
2018-05-13T08:47:04.085Z,20.20
2018-05-13T08:49:32.567Z,20.30
2018-05-13T08:52:04.487Z,20.30
2018-05-13T08:54:33.901Z,20.30
2018-05-13T08:57:02.609Z,19.80
2018-05-13T08:59:31.090Z,20.00
2018-05-13T09:01:59.569Z,20.00
2018-05-13T09:04:28.282Z,20.00
2018-05-13T09:06:56.788Z,19.90
2018-05-13T09:09:25.290Z,20.00
2018-05-13T09:11:53.749Z,19.70
2018-05-13T09:14:22.292Z,19.50
2018-05-13T09:16:50.712Z,19.30
2018-05-13T09:19:19.251Z,19.40
2018-05-13T09:21:48.251Z,19.30
2018-05-13T09:24:17.194Z,19.50
2018-05-13T09:26:45.710Z,19.40
2018-05-13T09:29:14.204Z,19.50
2018-05-13T09:31:46.731Z,19.50
2018-05-13T09:34:15.199Z,19.50
2018-05-13T09:36:43.682Z,19.80
2018-05-13T09:39:12.347Z,19.90
2018-05-13T09:41:40.892Z,19.70
2018-05-13T09:44:09.345Z,19.90
2018-05-13T09:46:37.807Z,20.10
2018-05-13T09:49:07.650Z,20.10
2018-05-13T09:51:36.111Z,20.20
2018-05-13T09:54:04.597Z,20.00
2018-05-13T09:56:33.111Z,20.20
2018-05-13T09:59:05.127Z,20.30
2018-05-13T10:01:35.733Z,20.20
2018-05-13T10:04:05.440Z,20.10
2018-05-13T10:06:33.948Z,20.10
2018-05-13T10:09:02.460Z,20.00
2018-05-13T10:11:31.252Z,20.10
2018-05-13T10:13:59.763Z,20.00
2018-05-13T10:16:28.305Z,20.20
2018-05-13T10:18:56.887Z,20.30
2018-05-13T10:21:25.377Z,20.60
2018-05-13T10:23:53.794Z,20.30
2018-05-13T10:26:22.319Z,20.20
2018-05-13T10:28:53.807Z,20.10
2018-05-13T10:31:24.295Z,20.40
2018-05-13T10:33:52.822Z,20.20
2018-05-13T10:36:21.413Z,19.60
2018-05-13T10:38:49.930Z,20.20
2018-05-13T10:41:18.425Z,20.30
2018-05-13T10:43:46.891Z,20.40
2018-05-13T10:46:15.972Z,20.20
2018-05-13T10:48:44.489Z,19.60
2018-05-13T10:51:13.018Z,19.70
2018-05-13T10:53:41.506Z,19.80
2018-05-13T10:56:09.946Z,20.00
2018-05-13T10:58:38.442Z,20.00
2018-05-13T11:01:07.036Z,19.80
2018-05-13T11:03:35.542Z,19.60
2018-05-13T11:06:04.063Z,19.60
2018-05-13T11:08:32.599Z,19.70
2018-05-13T11:11:01.093Z,19.40
2018-05-13T11:13:29.822Z,19.20
2018-05-13T11:15:58.341Z,18.60
2018-05-13T11:18:26.852Z,18.90
2018-05-13T11:20:56.722Z,19.20
2018-05-13T11:23:25.236Z,19.00
2018-05-13T11:25:55.306Z,18.50
2018-05-13T11:28:23.846Z,18.50
2018-05-13T11:30:52.465Z,18.20
2018-05-13T11:33:26.563Z,18.30
2018-05-13T11:36:04.832Z,18.20
2018-05-13T11:38:34.822Z,18.50
2018-05-13T11:41:43.121Z,18.40
2018-05-13T11:44:15.126Z,18.40
2018-05-13T11:49:49.972Z,18.20
2018-05-13T11:52:20.061Z,17.60
2018-05-13T11:57:27.660Z,17.50
2018-05-13T11:59:56.172Z,17.60
2018-05-13T12:02:24.811Z,17.70
2018-05-13T12:04:53.334Z,17.80
2018-05-13T12:07:22.089Z,17.30
2018-05-13T12:09:50.791Z,17.80
2018-05-13T12:12:19.465Z,17.90
2018-05-13T12:14:48.767Z,17.40
2018-05-13T12:17:19.591Z,17.50
2018-05-13T12:19:48.178Z,17.20
2018-05-13T12:22:16.707Z,16.50
2018-05-13T12:24:45.277Z,16.10
2018-05-13T12:30:09.626Z,16.50
2018-05-13T12:32:38.210Z,17.20
2018-05-13T12:35:06.854Z,17.00
2018-05-13T12:37:35.556Z,17.20
2018-05-13T12:40:04.201Z,16.30
2018-05-13T12:42:36.421Z,16.10
2018-05-13T12:45:05.091Z,16.20
2018-05-13T12:47:34.082Z,16.20
2018-05-13T12:50:12.966Z,16.20
2018-05-13T12:52:44.019Z,16.30
2018-05-13T12:58:31.655Z,16.50
2018-05-13T13:01:01.012Z,16.60
2018-05-13T13:03:29.848Z,16.60
2018-05-13T13:06:06.131Z,16.80
2018-05-13T13:08:34.901Z,16.20
2018-05-13T13:11:04.028Z,16.70
2018-05-13T13:13:33.638Z,16.20
2018-05-13T13:16:14.870Z,16.70
2018-05-13T13:21:52.277Z,16.70
2018-05-13T13:33:32.201Z,16.80
2018-05-13T13:36:09.004Z,16.10
2018-05-13T13:38:39.522Z,16.60
2018-05-13T13:41:08.061Z,16.60
2018-05-13T13:43:39.826Z,16.40
2018-05-13T13:46:09.469Z,16.30
2018-05-13T13:51:39.151Z,16.40
2018-05-13T13:54:09.617Z,16.30
2018-05-13T13:56:42.855Z,16.10
2018-05-13T14:02:21.639Z,16.10
2018-05-13T14:04:50.246Z,16.40
2018-05-13T14:07:28.272Z,16.00
2018-05-13T14:09:58.361Z,16.00
2018-05-13T14:12:27.052Z,16.30
2018-05-13T14:15:08.071Z,16.60
2018-05-13T14:17:36.572Z,16.30
2018-05-13T14:20:05.179Z,16.30
2018-05-13T14:22:33.736Z,16.10
2018-05-13T14:25:02.296Z,16.00
2018-05-13T14:27:30.849Z,16.10
2018-05-13T14:29:59.347Z,16.20
2018-05-13T14:32:27.918Z,16.40
2018-05-13T14:34:56.464Z,16.30
2018-05-13T14:37:25.119Z,16.50
2018-05-13T14:40:08.562Z,16.40
2018-05-13T14:42:37.131Z,16.30
2018-05-13T14:45:05.680Z,16.70
2018-05-13T14:47:34.215Z,16.60
2018-05-13T14:50:02.769Z,16.50
2018-05-13T14:52:31.322Z,16.30
2018-05-13T14:54:59.891Z,16.30
2018-05-13T14:57:28.424Z,16.30
2018-05-13T14:59:56.943Z,16.40
2018-05-13T15:02:25.479Z,16.30
2018-05-13T15:04:54.060Z,16.50
2018-05-13T15:07:32.151Z,16.50
2018-05-13T15:10:00.628Z,16.70
2018-05-13T15:12:29.129Z,17.00
2018-05-13T15:14:57.561Z,16.80
2018-05-13T15:17:26.811Z,16.90
2018-05-13T15:19:55.291Z,16.80
2018-05-13T15:22:29.347Z,16.80
2018-05-13T15:24:58.647Z,16.30
2018-05-13T15:27:30.680Z,16.30
2018-05-13T15:29:59.423Z,16.30
2018-05-13T15:32:29.051Z,16.30
2018-05-13T15:34:57.610Z,16.30
2018-05-13T15:37:26.100Z,16.30
2018-05-13T15:39:56.834Z,16.30
2018-05-13T15:42:25.370Z,16.30
2018-05-13T15:44:53.889Z,16.20
2018-05-13T15:47:22.452Z,16.10
2018-05-13T15:49:54.760Z,16.10
2018-05-13T15:52:26.487Z,16.10
2018-05-13T15:54:55.159Z,15.80
2018-05-13T15:57:23.656Z,15.90
2018-05-13T15:59:52.188Z,15.80
2018-05-13T16:02:20.701Z,15.70
2018-05-13T16:04:49.235Z,15.90
2018-05-13T16:07:18.549Z,15.90
2018-05-13T16:09:47.845Z,16.00
2018-05-13T16:12:16.406Z,16.00
2018-05-13T16:14:44.924Z,16.20
2018-05-13T16:17:13.465Z,16.00
2018-05-13T16:19:42.079Z,16.10
2018-05-13T16:22:10.536Z,16.10
2018-05-13T16:24:39.005Z,15.90
2018-05-13T16:27:07.730Z,16.10
2018-05-13T16:29:36.387Z,15.90
2018-05-13T16:32:04.949Z,15.90
2018-05-13T16:34:33.424Z,15.80
2018-05-13T16:37:02.514Z,16.00
2018-05-13T16:39:31.322Z,15.90
2018-05-13T16:42:00.512Z,15.90
2018-05-13T16:44:30.055Z,15.80
2018-05-13T16:46:58.784Z,16.00
2018-05-13T16:49:28.569Z,15.80
2018-05-13T16:51:57.795Z,16.00
2018-05-13T16:54:26.800Z,15.80
2018-05-13T16:56:56.602Z,16.00
2018-05-13T16:59:25.583Z,15.90
2018-05-13T17:01:54.489Z,15.70
2018-05-13T17:04:23.599Z,16.00
2018-05-13T17:06:52.526Z,16.10
2018-05-13T17:09:21.552Z,16.20
2018-05-13T17:11:50.496Z,16.10
2018-05-13T17:14:23.448Z,16.00
2018-05-13T17:16:52.841Z,15.80
2018-05-13T17:19:21.645Z,15.70
2018-05-13T17:21:58.603Z,15.70
2018-05-13T17:24:43.346Z,15.90
2018-05-13T17:27:13.785Z,16.00
2018-05-13T17:29:43.159Z,16.20
2018-05-13T17:32:12.637Z,16.00
2018-05-13T17:34:41.699Z,15.90
2018-05-13T17:37:11.866Z,15.60
2018-05-13T17:39:41.377Z,15.70
2018-05-13T17:42:11.498Z,15.80
2018-05-13T17:44:40.997Z,16.00
2018-05-13T17:47:23.208Z,15.90
2018-05-13T17:52:47.527Z,16.50
2018-05-13T17:58:27.472Z,16.10
2018-05-13T18:00:57.783Z,16.30
2018-05-13T18:03:30.078Z,16.50
2018-05-13T18:05:59.988Z,16.20
2018-05-13T18:08:30.212Z,16.40
2018-05-13T18:11:00.066Z,16.50
2018-05-13T18:13:30.041Z,16.40
2018-05-13T18:16:01.009Z,15.90
2018-05-13T18:18:31.761Z,15.70
2018-05-13T18:21:14.209Z,16.10
2018-05-13T18:23:44.085Z,16.00
2018-05-13T18:26:13.927Z,16.30
2018-05-13T18:28:45.051Z,16.10
2018-05-13T18:31:15.222Z,16.20
2018-05-13T18:33:45.352Z,15.70
2018-05-13T18:36:15.561Z,15.70
2018-05-13T18:38:45.553Z,15.70
2018-05-13T18:41:15.557Z,15.70
2018-05-13T18:43:45.490Z,15.70
2018-05-13T18:46:15.859Z,15.90
2018-05-13T18:48:45.798Z,15.90
2018-05-13T18:51:17.091Z,15.80
2018-05-13T18:53:48.115Z,15.70
2018-05-13T18:56:19.690Z,15.70
2018-05-13T18:58:50.672Z,15.90
2018-05-13T19:01:20.510Z,15.90
2018-05-13T19:03:50.680Z,15.60
2018-05-13T19:06:26.591Z,15.40
2018-05-13T19:08:58.551Z,15.60
2018-05-13T19:11:51.578Z,15.80
2018-05-13T19:14:25.666Z,15.60
2018-05-13T19:16:55.673Z,15.40
2018-05-13T19:19:25.908Z,15.50
2018-05-13T19:21:55.864Z,15.80
2018-05-13T19:24:25.971Z,15.60
2018-05-13T19:30:01.216Z,15.10
2018-05-13T19:32:31.236Z,15.10
2018-05-13T19:35:01.596Z,15.20
2018-05-13T19:37:31.820Z,15.10
2018-05-13T19:40:22.562Z,15.10
2018-05-13T19:42:54.518Z,15.00
2018-05-13T19:45:24.661Z,15.20
2018-05-13T19:47:54.687Z,15.10
2018-05-13T19:50:25.011Z,15.20
2018-05-13T19:52:55.551Z,15.30
2018-05-13T19:55:25.528Z,15.20
2018-05-13T19:57:56.739Z,15.10
2018-05-13T20:00:26.709Z,15.20
2018-05-13T20:02:56.395Z,15.10
2018-05-13T20:05:26.999Z,15.10
2018-05-13T20:07:57.402Z,15.10
2018-05-13T20:10:27.086Z,15.10
2018-05-13T20:12:57.366Z,15.00
2018-05-13T20:15:34.656Z,14.90
2018-05-13T20:18:03.901Z,14.80
2018-05-13T20:20:33.116Z,14.90
2018-05-13T20:23:19.707Z,14.90
2018-05-13T20:25:50.449Z,14.80
2018-05-13T20:28:19.109Z,14.90
2018-05-13T20:30:47.887Z,14.90
2018-05-13T20:33:17.422Z,15.00
2018-05-13T20:35:48.356Z,15.00
2018-05-13T20:38:18.636Z,14.90
2018-05-13T20:40:56.867Z,15.20
2018-05-13T20:43:27.363Z,15.50
2018-05-13T20:45:56.171Z,15.20
2018-05-13T20:48:52.056Z,15.00
2018-05-13T20:51:20.752Z,14.80
2018-05-13T20:53:49.235Z,15.00
2018-05-13T20:56:25.596Z,15.10
2018-05-13T20:58:54.448Z,15.00
2018-05-13T21:01:49.052Z,15.00
2018-05-13T21:04:36.667Z,14.90
2018-05-13T21:07:05.284Z,14.90
2018-05-13T21:12:45.253Z,14.80
2018-05-13T21:15:13.869Z,14.80
2018-05-13T21:20:53.183Z,15.00
2018-05-13T21:23:22.043Z,14.90
2018-05-13T21:25:54.250Z,14.60
2018-05-13T21:34:27.125Z,14.90
2018-05-13T21:37:11.954Z,14.90
2018-05-13T21:39:42.133Z,15.00
2018-05-13T21:42:12.341Z,14.80
2018-05-13T21:44:50.138Z,14.70
2018-05-13T21:47:20.244Z,14.80
2018-05-13T21:49:53.873Z,14.70
2018-05-13T21:52:25.398Z,14.70
2018-05-13T21:54:54.590Z,14.80
2018-05-13T21:57:23.179Z,14.90
2018-05-13T21:59:51.889Z,14.90
2018-05-13T22:02:20.787Z,14.80
2018-05-13T22:04:59.708Z,14.90
2018-05-13T22:07:28.243Z,15.20
2018-05-13T22:09:56.994Z,14.90
2018-05-13T22:12:25.769Z,14.70
2018-05-13T22:14:54.625Z,14.70
2018-05-13T22:17:23.220Z,14.70
2018-05-13T22:19:52.061Z,14.70
2018-05-13T22:22:21.158Z,14.50
2018-05-13T22:24:51.065Z,14.50
2018-05-13T22:27:24.246Z,14.70
2018-05-13T22:29:52.788Z,15.00
2018-05-13T22:32:21.336Z,14.80
2018-05-13T22:34:52.953Z,14.50
2018-05-13T22:37:21.644Z,14.50
2018-05-13T22:39:50.134Z,14.50
2018-05-13T22:42:20.738Z,14.70
2018-05-13T22:44:49.282Z,14.50
2018-05-13T22:47:19.164Z,14.50
2018-05-13T22:49:47.796Z,14.30
2018-05-13T22:52:18.434Z,14.40
2018-05-13T22:54:48.356Z,14.30
2018-05-13T22:57:19.975Z,14.20
2018-05-13T22:59:48.800Z,14.30
2018-05-13T23:02:18.383Z,14.30
2018-05-13T23:04:47.650Z,14.20
2018-05-13T23:07:17.252Z,14.30
2018-05-13T23:09:45.822Z,14.40
2018-05-13T23:12:14.499Z,14.50
2018-05-13T23:14:43.436Z,14.50
2018-05-13T23:17:16.581Z,14.40
2018-05-13T23:19:45.601Z,14.20
2018-05-13T23:22:32.195Z,14.40
2018-05-13T23:25:00.965Z,14.40
2018-05-13T23:27:32.408Z,14.30
2018-05-13T23:30:03.734Z,14.20
2018-05-13T23:32:33.124Z,14.10
2018-05-13T23:35:02.696Z,14.00
2018-05-13T23:37:33.408Z,14.10
2018-05-13T23:40:04.276Z,14.20
2018-05-13T23:42:33.582Z,14.20
2018-05-13T23:45:02.856Z,14.10
2018-05-13T23:47:34.354Z,14.20
2018-05-13T23:50:04.895Z,14.30
2018-05-13T23:52:33.440Z,14.30
2018-05-13T23:55:01.985Z,14.20
2018-05-13T23:57:30.539Z,14.20
2018-05-13T23:59:59.064Z,14.00
